Station Historical Data
Daily Summary for March 2, 2017 Units:  Both    English   Metric
« Previous Day
Next Day »
Daily Weekly Monthly Yearly Custom
  High: Low: Average:
Temperature: 36.0 °F /  2.2 °C 22.6 °F /  -5.2 °C 27 °F /  -2.8 °C
Dew Point: 28.8 °F /  -1.8 °C 12.5 °F /  -10.8 °C 16.9 °F /  -8.4 °C
Humidity: 84% 49% 66%
Wind Speed: 20.0mph /  32.2km/h - 8.3mph /  13.4km/h
Wind Gust: 30.0mph /  48.3km/h - -
Wind- - West
Pressure: 30.23 in /  1023.6 hPa 29.50 in /  998.9 hPa -
Precipitation: 0.00 in /  0 mm    
Historical Graphs
 
 
Tabular Data for March 2, 2017
Time Temperature Dew Point Pressure Wind Wind Speed Wind Gust Humidity Rainfall Rate (Hourly)
00:04 36.0 °F /  2.2 °C 28.8 °F /  -1.8 °C 29.50in /  998.9hPa West 9.0mph /  14.5km/h 18.0mph /  29km/h 75% 0.00in /  0mm
00:09 35.8 °F /  2.1 °C 28.3 °F /  -2.1 °C 29.50in /  998.9hPa WSW 9.0mph /  14.5km/h 18.0mph /  29km/h 74% 0.00in /  0mm
00:14 35.6 °F /  2 °C 28.5 °F /  -1.9 °C 29.50in /  998.9hPa West 8.0mph /  12.9km/h 17.0mph /  27.4km/h 75% 0.00in /  0mm
00:19 35.2 °F /  1.8 °C 27.7 °F /  -2.4 °C 29.51in /  999.2hPa West 10.0mph /  16.1km/h 22.0mph /  35.4km/h 74% 0.00in /  0mm
00:24 34.8 °F /  1.6 °C 27.0 °F /  -2.8 °C 29.51in /  999.2hPa West 13.0mph /  20.9km/h 28.0mph /  45.1km/h 73% 0.00in /  0mm
00:29 34.5 °F /  1.4 °C 26.7 °F /  -2.9 °C 29.51in /  999.2hPa WNW 12.0mph /  19.3km/h 30.0mph /  48.3km/h 73% 0.00in /  0mm
00:34 34.1 °F /  1.2 °C 26.7 °F /  -2.9 °C 29.52in /  999.5hPa WSW 6.0mph /  9.7km/h 18.0mph /  29km/h 74% 0.00in /  0mm
00:39 33.9 °F /  1.1 °C 26.5 °F /  -3.1 °C 29.53in /  999.9hPa West 17.0mph /  27.4km/h 20.0mph /  32.2km/h 74% 0.00in /  0mm
00:44 33.4 °F /  0.8 °C 25.3 °F /  -3.7 °C 29.53in /  999.9hPa West 11.0mph /  17.7km/h 23.0mph /  37km/h 72% 0.00in /  0mm
00:49 33.2 °F /  0.7 °C 25.1 °F /  -3.8 °C 29.53in /  999.9hPa West 12.0mph /  19.3km/h 23.0mph /  37km/h 72% 0.00in /  0mm
00:54 33.0 °F /  0.6 °C 24.3 °F /  -4.3 °C 29.54in /  1000.2hPa WSW 12.0mph /  19.3km/h 26.0mph /  41.8km/h 70% 0.00in /  0mm
00:59 32.6 °F /  0.3 °C 23.6 °F /  -4.7 °C 29.54in /  1000.2hPa West 15.0mph /  24.1km/h 28.0mph /  45.1km/h 69% 0.00in /  0mm
01:04 32.4 °F /  0.2 °C 24.0 °F /  -4.4 °C 29.54in /  1000.2hPa NW 8.0mph /  12.9km/h 23.0mph /  37km/h 71% 0.00in /  0mm
01:09 32.4 °F /  0.2 °C 24.4 °F /  -4.2 °C 29.55in /  1000.6hPa WSW 7.0mph /  11.3km/h 19.0mph /  30.6km/h 72% 0.00in /  0mm
01:14 31.9 °F /  -0.1 °C 24.2 °F /  -4.3 °C 29.55in /  1000.6hPa West 11.0mph /  17.7km/h 23.0mph /  37km/h 73% 0.00in /  0mm
01:19 31.6 °F /  -0.2 °C 24.3 °F /  -4.3 °C 29.56in /  1000.9hPa West 12.0mph /  19.3km/h 23.0mph /  37km/h 74% 0.00in /  0mm
01:24 31.1 °F /  -0.5 °C 24.4 °F /  -4.2 °C 29.56in /  1000.9hPa West 12.0mph /  19.3km/h 22.0mph /  35.4km/h 76% 0.00in /  0mm
01:29 30.4 °F /  -0.9 °C 24.7 °F /  -4.1 °C 29.57in /  1001.2hPa West 11.0mph /  17.7km/h 22.0mph /  35.4km/h 79% 0.00in /  0mm
01:34 29.9 °F /  -1.2 °C 24.5 °F /  -4.2 °C 29.57in /  1001.2hPa WSW 15.0mph /  24.1km/h 23.0mph /  37km/h 80% 0.00in /  0mm
01:39 29.5 °F /  -1.4 °C 24.7 °F /  -4.1 °C 29.57in /  1001.2hPa WSW 5.0mph /  8km/h 17.0mph /  27.4km/h 82% 0.00in /  0mm
01:44 29.3 °F /  -1.5 °C 24.8 °F /  -4 °C 29.58in /  1001.6hPa West 9.0mph /  14.5km/h 19.0mph /  30.6km/h 83% 0.00in /  0mm
01:49 29.1 °F /  -1.6 °C 24.9 °F /  -3.9 °C 29.58in /  1001.6hPa West 9.0mph /  14.5km/h 19.0mph /  30.6km/h 84% 0.00in /  0mm
01:54 29.0 °F /  -1.7 °C 24.8 °F /  -4 °C 29.58in /  1001.6hPa West 8.0mph /  12.9km/h 18.0mph /  29km/h 84% 0.00in /  0mm
01:59 29.0 °F /  -1.7 °C 23.9 °F /  -4.5 °C 29.58in /  1001.6hPa West 6.0mph /  9.7km/h 22.0mph /  35.4km/h 81% 0.00in /  0mm
02:04 29.2 °F /  -1.6 °C 22.3 °F /  -5.4 °C 29.58in /  1001.6hPa SSW 7.0mph /  11.3km/h 25.0mph /  40.2km/h 75% 0.00in /  0mm
02:09 29.2 °F /  -1.6 °C 21.6 °F /  -5.8 °C 29.59in /  1001.9hPa WNW 7.0mph /  11.3km/h 24.0mph /  38.6km/h 73% 0.00in /  0mm
02:14 29.3 °F /  -1.5 °C 21.7 °F /  -5.7 °C 29.60in /  1002.3hPa WNW 9.0mph /  14.5km/h 17.0mph /  27.4km/h 73% 0.00in /  0mm
02:19 29.0 °F /  -1.7 °C 19.4 °F /  -7 °C 29.60in /  1002.3hPa West 11.0mph /  17.7km/h 29.0mph /  46.7km/h 67% 0.00in /  0mm
02:24 28.7 °F /  -1.8 °C 18.1 °F /  -7.7 °C 29.61in /  1002.6hPa West 15.0mph /  24.1km/h 29.0mph /  46.7km/h 64% 0.00in /  0mm
02:29 28.4 °F /  -2 °C 18.1 °F /  -7.7 °C 29.61in /  1002.6hPa West 14.0mph /  22.5km/h 29.0mph /  46.7km/h 65% 0.00in /  0mm
02:34 28.1 °F /  -2.2 °C 18.2 °F /  -7.7 °C 29.62in /  1002.9hPa West 12.0mph /  19.3km/h 27.0mph /  43.5km/h 66% 0.00in /  0mm
02:39 27.7 °F /  -2.4 °C 18.2 °F /  -7.7 °C 29.63in /  1003.3hPa NNW 8.0mph /  12.9km/h 30.0mph /  48.3km/h 67% 0.00in /  0mm
02:44 27.4 °F /  -2.6 °C 17.5 °F /  -8.1 °C 29.63in /  1003.3hPa WSW 7.0mph /  11.3km/h 27.0mph /  43.5km/h 66% 0.00in /  0mm
02:49 27.1 °F /  -2.7 °C 16.2 °F /  -8.8 °C 29.64in /  1003.6hPa West 14.0mph /  22.5km/h 27.0mph /  43.5km/h 63% 0.00in /  0mm
02:54 26.9 °F /  -2.8 °C 16.3 °F /  -8.7 °C 29.64in /  1003.6hPa West 13.0mph /  20.9km/h 27.0mph /  43.5km/h 64% 0.00in /  0mm
02:59 26.7 °F /  -2.9 °C 15.4 °F /  -9.2 °C 29.65in /  1003.9hPa West 13.0mph /  20.9km/h 24.0mph /  38.6km/h 62% 0.00in /  0mm
03:04 26.6 °F /  -3 °C 15.7 °F /  -9.1 °C 29.66in /  1004.3hPa West 13.0mph /  20.9km/h 26.0mph /  41.8km/h 63% 0.00in /  0mm
03:09 26.4 °F /  -3.1 °C 15.5 °F /  -9.2 °C 29.67in /  1004.6hPa West 12.0mph /  19.3km/h 26.0mph /  41.8km/h 63% 0.00in /  0mm
03:14 25.9 °F /  -3.4 °C 17.5 °F /  -8.1 °C 29.67in /  1004.6hPa WNW 8.0mph /  12.9km/h 21.0mph /  33.8km/h 70% 0.00in /  0mm
03:19 25.1 °F /  -3.8 °C 18.3 °F /  -7.6 °C 29.68in /  1005hPa WNW 8.0mph /  12.9km/h 22.0mph /  35.4km/h 75% 0.00in /  0mm
03:24 24.7 °F /  -4.1 °C 18.2 °F /  -7.7 °C 29.68in /  1005hPa WNW 11.0mph /  17.7km/h 25.0mph /  40.2km/h 76% 0.00in /  0mm
03:29 24.7 °F /  -4.1 °C 18.2 °F /  -7.7 °C 29.69in /  1005.3hPa West 11.0mph /  17.7km/h 25.0mph /  40.2km/h 76% 0.00in /  0mm
03:34 24.8 °F /  -4 °C 17.7 °F /  -7.9 °C 29.69in /  1005.3hPa WNW 16.0mph /  25.7km/h 22.0mph /  35.4km/h 74% 0.00in /  0mm
03:39 24.3 °F /  -4.3 °C 18.1 °F /  -7.7 °C 29.70in /  1005.6hPa WNW 20.0mph /  32.2km/h 20.0mph /  32.2km/h 77% 0.00in /  0mm
03:44 23.7 °F /  -4.6 °C 18.4 °F /  -7.6 °C 29.71in /  1006hPa WSW 10.0mph /  16.1km/h 21.0mph /  33.8km/h 80% 0.00in /  0mm
03:49 23.4 °F /  -4.8 °C 18.4 °F /  -7.6 °C 29.71in /  1006hPa West 8.0mph /  12.9km/h 20.0mph /  32.2km/h 81% 0.00in /  0mm
03:54 23.4 °F /  -4.8 °C 18.1 °F /  -7.7 °C 29.72in /  1006.3hPa WNW 7.0mph /  11.3km/h 20.0mph /  32.2km/h 80% 0.00in /  0mm
03:59 23.4 °F /  -4.8 °C 18.1 °F /  -7.7 °C 29.72in /  1006.3hPa West 11.0mph /  17.7km/h 21.0mph /  33.8km/h 80% 0.00in /  0mm
04:04 23.5 °F /  -4.7 °C 17.9 °F /  -7.8 °C 29.73in /  1006.7hPa West 11.0mph /  17.7km/h 21.0mph /  33.8km/h 79% 0.00in /  0mm
04:09 23.6 °F /  -4.7 °C 17.4 °F /  -8.1 °C 29.73in /  1006.7hPa West 11.0mph /  17.7km/h 20.0mph /  32.2km/h 77% 0.00in /  0mm
04:14 23.7 °F /  -4.6 °C 16.9 °F /  -8.4 °C 29.74in /  1007hPa West 11.0mph /  17.7km/h 20.0mph /  32.2km/h 75% 0.00in /  0mm
04:19 23.7 °F /  -4.6 °C 16.3 °F /  -8.7 °C 29.75in /  1007.3hPa West 15.0mph /  24.1km/h 20.0mph /  32.2km/h 73% 0.00in /  0mm
04:24 23.6 °F /  -4.7 °C 16.5 °F /  -8.6 °C 29.75in /  1007.3hPa West 11.0mph /  17.7km/h 20.0mph /  32.2km/h 74% 0.00in /  0mm
04:29 23.5 °F /  -4.7 °C 16.1 °F /  -8.8 °C 29.75in /  1007.3hPa WSW 14.0mph /  22.5km/h 20.0mph /  32.2km/h 73% 0.00in /  0mm
04:34 23.5 °F /  -4.7 °C 15.5 °F /  -9.2 °C 29.76in /  1007.7hPa West 14.0mph /  22.5km/h 22.0mph /  35.4km/h 71% 0.00in /  0mm
04:39 23.4 °F /  -4.8 °C 15.1 °F /  -9.4 °C 29.76in /  1007.7hPa West 17.0mph /  27.4km/h 21.0mph /  33.8km/h 70% 0.00in /  0mm
04:44 23.4 °F /  -4.8 °C 15.4 °F /  -9.2 °C 29.76in /  1007.7hPa NW 7.0mph /  11.3km/h 20.0mph /  32.2km/h 71% 0.00in /  0mm
04:49 23.4 °F /  -4.8 °C 15.7 °F /  -9.1 °C 29.77in /  1008hPa WSW 6.0mph /  9.7km/h 17.0mph /  27.4km/h 72% 0.00in /  0mm
04:54 23.4 °F /  -4.8 °C 15.7 °F /  -9.1 °C 29.78in /  1008.4hPa West 10.0mph /  16.1km/h 21.0mph /  33.8km/h 72% 0.00in /  0mm
04:59 23.1 °F /  -4.9 °C 15.7 °F /  -9.1 °C 29.78in /  1008.4hPa West 11.0mph /  17.7km/h 25.0mph /  40.2km/h 73% 0.00in /  0mm
05:04 23.1 °F /  -4.9 °C 15.4 °F /  -9.2 °C 29.79in /  1008.7hPa West 11.0mph /  17.7km/h 25.0mph /  40.2km/h 72% 0.00in /  0mm
05:09 23.0 °F /  -5 °C 15.9 °F /  -8.9 °C 29.79in /  1008.7hPa West 11.0mph /  17.7km/h 21.0mph /  33.8km/h 74% 0.00in /  0mm
05:14 22.9 °F /  -5.1 °C 15.8 °F /  -9 °C 29.79in /  1008.7hPa West 11.0mph /  17.7km/h 20.0mph /  32.2km/h 74% 0.00in /  0mm
05:19 22.9 °F /  -5.1 °C 16.2 °F /  -8.8 °C 29.81in /  1009.4hPa West 12.0mph /  19.3km/h 25.0mph /  40.2km/h 75% 0.00in /  0mm
05:24 22.8 °F /  -5.1 °C 15.8 °F /  -9 °C 29.81in /  1009.4hPa West 11.0mph /  17.7km/h 25.0mph /  40.2km/h 74% 0.00in /  0mm
05:29 23.0 °F /  -5 °C 15.9 °F /  -8.9 °C 29.81in /  1009.4hPa West 15.0mph /  24.1km/h 21.0mph /  33.8km/h 74% 0.00in /  0mm
05:34 22.8 °F /  -5.1 °C 14.8 °F /  -9.6 °C 29.82in /  1009.7hPa West 7.0mph /  11.3km/h 20.0mph /  32.2km/h 71% 0.00in /  0mm
05:39 22.9 °F /  -5.1 °C 14.9 °F /  -9.5 °C 29.82in /  1009.7hPa WNW 9.0mph /  14.5km/h 22.0mph /  35.4km/h 71% 0.00in /  0mm
05:44 22.8 °F /  -5.1 °C 14.8 °F /  -9.6 °C 29.82in /  1009.7hPa SW 9.0mph /  14.5km/h 22.0mph /  35.4km/h 71% 0.00in /  0mm
05:49 22.8 °F /  -5.1 °C 15.1 °F /  -9.4 °C 29.83in /  1010hPa West 6.0mph /  9.7km/h 21.0mph /  33.8km/h 72% 0.00in /  0mm
05:54 22.8 °F /  -5.1 °C 15.1 °F /  -9.4 °C 29.83in /  1010hPa WNW 6.0mph /  9.7km/h 15.0mph /  24.1km/h 72% 0.00in /  0mm
05:59 22.8 °F /  -5.1 °C 14.8 °F /  -9.6 °C 29.83in /  1010hPa West 8.0mph /  12.9km/h 17.0mph /  27.4km/h 71% 0.00in /  0mm
06:04 22.9 °F /  -5.1 °C 14.9 °F /  -9.5 °C 29.84in /  1010.4hPa West 10.0mph /  16.1km/h 19.0mph /  30.6km/h 71% 0.00in /  0mm
06:09 22.8 °F /  -5.1 °C 14.5 °F /  -9.7 °C 29.84in /  1010.4hPa West 11.0mph /  17.7km/h 21.0mph /  33.8km/h 70% 0.00in /  0mm
06:14 22.8 °F /  -5.1 °C 14.5 °F /  -9.7 °C 29.85in /  1010.7hPa West 10.0mph /  16.1km/h 21.0mph /  33.8km/h 70% 0.00in /  0mm
06:19 22.8 °F /  -5.1 °C 14.5 °F /  -9.7 °C 29.85in /  1010.7hPa West 11.0mph /  17.7km/h 20.0mph /  32.2km/h 70% 0.00in /  0mm
06:24 22.8 °F /  -5.1 °C 14.5 °F /  -9.7 °C 29.86in /  1011.1hPa West 12.0mph /  19.3km/h 21.0mph /  33.8km/h 70% 0.00in /  0mm
06:29 22.8 °F /  -5.1 °C 14.8 °F /  -9.6 °C 29.86in /  1011.1hPa WSW 7.0mph /  11.3km/h 19.0mph /  30.6km/h 71% 0.00in /  0mm
06:34 22.7 °F /  -5.2 °C 14.7 °F /  -9.6 °C 29.86in /  1011.1hPa West 10.0mph /  16.1km/h 21.0mph /  33.8km/h 71% 0.00in /  0mm
06:39 22.7 °F /  -5.2 °C 14.7 °F /  -9.6 °C 29.87in /  1011.4hPa West 11.0mph /  17.7km/h 22.0mph /  35.4km/h 71% 0.00in /  0mm
06:44 22.6 °F /  -5.2 °C 14.6 °F /  -9.7 °C 29.87in /  1011.4hPa WSW 9.0mph /  14.5km/h 16.0mph /  25.7km/h 71% 0.00in /  0mm
06:49 22.7 °F /  -5.2 °C 14.7 °F /  -9.6 °C 29.87in /  1011.4hPa WNW 10.0mph /  16.1km/h 19.0mph /  30.6km/h 71% 0.00in /  0mm
06:54 22.7 °F /  -5.2 °C 15.0 °F /  -9.4 °C 29.87in /  1011.4hPa SSW 6.0mph /  9.7km/h 21.0mph /  33.8km/h 72% 0.00in /  0mm
06:59 22.7 °F /  -5.2 °C 15.0 °F /  -9.4 °C 29.88in /  1011.7hPa West 8.0mph /  12.9km/h 16.0mph /  25.7km/h 72% 0.00in /  0mm
07:04 22.7 °F /  -5.2 °C 14.7 °F /  -9.6 °C 29.88in /  1011.7hPa West 9.0mph /  14.5km/h 16.0mph /  25.7km/h 71% 0.00in /  0mm
07:09 22.7 °F /  -5.2 °C 15.0 °F /  -9.4 °C 29.89in /  1012.1hPa WNW 9.0mph /  14.5km/h 16.0mph /  25.7km/h 72% 0.00in /  0mm
07:14 22.9 °F /  -5.1 °C 15.2 °F /  -9.3 °C 29.89in /  1012.1hPa West 8.0mph /  12.9km/h 16.0mph /  25.7km/h 72% 0.00in /  0mm
07:19 23.0 °F /  -5 °C 15.0 °F /  -9.4 °C 29.90in /  1012.4hPa West 8.0mph /  12.9km/h 20.0mph /  32.2km/h 71% 0.00in /  0mm
07:24 23.1 °F /  -4.9 °C 15.1 °F /  -9.4 °C 29.90in /  1012.4hPa WNW 7.0mph /  11.3km/h 18.0mph /  29km/h 71% 0.00in /  0mm
07:29 23.3 °F /  -4.8 °C 15.3 °F /  -9.3 °C 29.90in /  1012.4hPa NW 11.0mph /  17.7km/h 14.0mph /  22.5km/h 71% 0.00in /  0mm
07:34 23.4 °F /  -4.8 °C 15.7 °F /  -9.1 °C 29.91in /  1012.8hPa WSW 12.0mph /  19.3km/h 15.0mph /  24.1km/h 72% 0.00in /  0mm
07:39 23.3 °F /  -4.8 °C 15.6 °F /  -9.1 °C 29.91in /  1012.8hPa WNW 9.0mph /  14.5km/h 18.0mph /  29km/h 72% 0.00in /  0mm
07:44 23.3 °F /  -4.8 °C 15.6 °F /  -9.1 °C 29.92in /  1013.1hPa West 14.0mph /  22.5km/h 15.0mph /  24.1km/h 72% 0.00in /  0mm
07:49 23.3 °F /  -4.8 °C 15.6 °F /  -9.1 °C 29.92in /  1013.1hPa West 8.0mph /  12.9km/h 16.0mph /  25.7km/h 72% 0.00in /  0mm
07:54 23.4 °F /  -4.8 °C 15.7 °F /  -9.1 °C 29.92in /  1013.1hPa West 6.0mph /  9.7km/h 14.0mph /  22.5km/h 72% 0.00in /  0mm
07:59 23.4 °F /  -4.8 °C 15.7 °F /  -9.1 °C 29.93in /  1013.4hPa WNW 3.0mph /  4.8km/h 13.0mph /  20.9km/h 72% 0.00in /  0mm
08:04 23.2 °F /  -4.9 °C 15.5 °F /  -9.2 °C 29.93in /  1013.4hPa WSW 5.0mph /  8km/h 15.0mph /  24.1km/h 72% 0.00in /  0mm
08:09 23.1 °F /  -4.9 °C 15.7 °F /  -9.1 °C 29.93in /  1013.4hPa West 8.0mph /  12.9km/h 15.0mph /  24.1km/h 73% 0.00in /  0mm
08:14 23.2 °F /  -4.9 °C 15.5 °F /  -9.2 °C 29.93in /  1013.4hPa West 8.0mph /  12.9km/h 17.0mph /  27.4km/h 72% 0.00in /  0mm
08:19 23.5 °F /  -4.7 °C 15.8 °F /  -9 °C 29.93in /  1013.4hPa West 8.0mph /  12.9km/h 17.0mph /  27.4km/h 72% 0.00in /  0mm
08:24 23.5 °F /  -4.7 °C 15.5 °F /  -9.2 °C 29.94in /  1013.8hPa West 8.0mph /  12.9km/h 18.0mph /  29km/h 71% 0.00in /  0mm
08:29 23.7 °F /  -4.6 °C 16.0 °F /  -8.9 °C 29.94in /  1013.8hPa West 8.0mph /  12.9km/h 18.0mph /  29km/h 72% 0.00in /  0mm
08:34 23.8 °F /  -4.6 °C 15.8 °F /  -9 °C 29.95in /  1014.1hPa West 9.0mph /  14.5km/h 19.0mph /  30.6km/h 71% 0.00in /  0mm
08:39 24.0 °F /  -4.4 °C 16.0 °F /  -8.9 °C 29.95in /  1014.1hPa WNW 5.0mph /  8km/h 14.0mph /  22.5km/h 71% 0.00in /  0mm
08:44 24.3 °F /  -4.3 °C 16.2 °F /  -8.8 °C 29.95in /  1014.1hPa West 7.0mph /  11.3km/h 14.0mph /  22.5km/h 71% 0.00in /  0mm
08:49 24.3 °F /  -4.3 °C 16.6 °F /  -8.6 °C 29.96in /  1014.4hPa WNW 10.0mph /  16.1km/h 18.0mph /  29km/h 72% 0.00in /  0mm
08:54 24.5 °F /  -4.2 °C 16.8 °F /  -8.4 °C 29.96in /  1014.4hPa West 14.0mph /  22.5km/h 18.0mph /  29km/h 72% 0.00in /  0mm
08:59 24.7 °F /  -4.1 °C 17.0 °F /  -8.3 °C 29.96in /  1014.4hPa NW 9.0mph /  14.5km/h 17.0mph /  27.4km/h 72% 0.00in /  0mm
09:04 24.9 °F /  -3.9 °C 16.5 °F /  -8.6 °C 29.96in /  1014.4hPa West 8.0mph /  12.9km/h 17.0mph /  27.4km/h 70% 0.00in /  0mm
09:09 24.8 °F /  -4 °C 16.4 °F /  -8.7 °C 29.96in /  1014.4hPa West 11.0mph /  17.7km/h 19.0mph /  30.6km/h 70% 0.00in /  0mm
09:14 24.8 °F /  -4 °C 16.1 °F /  -8.8 °C 29.97in /  1014.8hPa West 11.0mph /  17.7km/h 21.0mph /  33.8km/h 69% 0.00in /  0mm
09:19 24.9 °F /  -3.9 °C 16.2 °F /  -8.8 °C 29.97in /  1014.8hPa West 12.0mph /  19.3km/h 21.0mph /  33.8km/h 69% 0.00in /  0mm
09:24 25.4 °F /  -3.7 °C 17.0 °F /  -8.3 °C 29.97in /  1014.8hPa West 11.0mph /  17.7km/h 21.0mph /  33.8km/h 70% 0.00in /  0mm
09:29 25.6 °F /  -3.6 °C 16.8 °F /  -8.4 °C 29.98in /  1015.1hPa WNW 9.0mph /  14.5km/h 18.0mph /  29km/h 69% 0.00in /  0mm
09:34 25.2 °F /  -3.8 °C 16.5 °F /  -8.6 °C 29.98in /  1015.1hPa WNW 10.0mph /  16.1km/h 22.0mph /  35.4km/h 69% 0.00in /  0mm
09:39 25.6 °F /  -3.6 °C 16.8 °F /  -8.4 °C 29.98in /  1015.1hPa WSW 7.0mph /  11.3km/h 18.0mph /  29km/h 69% 0.00in /  0mm
09:44 26.0 °F /  -3.3 °C 16.9 °F /  -8.4 °C 29.99in /  1015.5hPa WNW 12.0mph /  19.3km/h 19.0mph /  30.6km/h 68% 0.00in /  0mm
09:49 26.0 °F /  -3.3 °C 17.2 °F /  -8.2 °C 29.99in /  1015.5hPa WNW 8.0mph /  12.9km/h 19.0mph /  30.6km/h 69% 0.00in /  0mm
09:54 26.7 °F /  -2.9 °C 17.2 °F /  -8.2 °C 29.99in /  1015.5hPa WSW 7.0mph /  11.3km/h 17.0mph /  27.4km/h 67% 0.00in /  0mm
09:59 27.3 °F /  -2.6 °C 17.4 °F /  -8.1 °C 30.00in /  1015.8hPa West 6.0mph /  9.7km/h 21.0mph /  33.8km/h 66% 0.00in /  0mm
10:04 27.0 °F /  -2.8 °C 16.8 °F /  -8.4 °C 30.00in /  1015.8hPa West 5.0mph /  8km/h 15.0mph /  24.1km/h 65% 0.00in /  0mm
10:09 27.7 °F /  -2.4 °C 17.5 °F /  -8.1 °C 30.00in /  1015.8hPa NW 5.0mph /  8km/h 16.0mph /  25.7km/h 65% 0.00in /  0mm
10:14 27.8 °F /  -2.3 °C 16.5 °F /  -8.6 °C 30.00in /  1015.8hPa SW 5.0mph /  8km/h 20.0mph /  32.2km/h 62% 0.00in /  0mm
10:19 27.8 °F /  -2.3 °C 16.8 °F /  -8.4 °C 30.00in /  1015.8hPa West 12.0mph /  19.3km/h 16.0mph /  25.7km/h 63% 0.00in /  0mm
10:24 27.6 °F /  -2.4 °C 16.6 °F /  -8.6 °C 30.00in /  1015.8hPa West 10.0mph /  16.1km/h 21.0mph /  33.8km/h 63% 0.00in /  0mm
10:29 27.5 °F /  -2.5 °C 16.5 °F /  -8.6 °C 30.00in /  1015.8hPa West 10.0mph /  16.1km/h 21.0mph /  33.8km/h 63% 0.00in /  0mm
10:34 28.2 °F /  -2.1 °C 18.3 °F /  -7.6 °C 30.00in /  1015.8hPa West 9.0mph /  14.5km/h 17.0mph /  27.4km/h 66% 0.00in /  0mm
10:39 29.1 °F /  -1.6 °C 18.8 °F /  -7.3 °C 30.00in /  1015.8hPa West 9.0mph /  14.5km/h 18.0mph /  29km/h 65% 0.00in /  0mm
10:44 29.2 °F /  -1.6 °C 18.9 °F /  -7.3 °C 30.00in /  1015.8hPa WNW 5.0mph /  8km/h 17.0mph /  27.4km/h 65% 0.00in /  0mm
10:49 30.2 °F /  -1 °C 20.2 °F /  -6.6 °C 30.00in /  1015.8hPa West 8.0mph /  12.9km/h 15.0mph /  24.1km/h 66% 0.00in /  0mm
10:54 30.3 °F /  -0.9 °C 18.8 °F /  -7.3 °C 30.01in /  1016.1hPa West 8.0mph /  12.9km/h 16.0mph /  25.7km/h 62% 0.00in /  0mm
10:59 30.8 °F /  -0.7 °C 18.9 °F /  -7.3 °C 30.01in /  1016.1hPa WSW 9.0mph /  14.5km/h 14.0mph /  22.5km/h 61% 0.00in /  0mm
11:04 31.4 °F /  -0.3 °C 19.5 °F /  -6.9 °C 30.01in /  1016.1hPa West 3.0mph /  4.8km/h 16.0mph /  25.7km/h 61% 0.00in /  0mm
11:09 31.3 °F /  -0.4 °C 17.8 °F /  -7.9 °C 30.01in /  1016.1hPa WNW 6.0mph /  9.7km/h 15.0mph /  24.1km/h 57% 0.00in /  0mm
11:14 30.9 °F /  -0.6 °C 17.4 °F /  -8.1 °C 30.01in /  1016.1hPa WSW 2.0mph /  3.2km/h 17.0mph /  27.4km/h 57% 0.00in /  0mm
11:19 33.0 °F /  0.6 °C 21.8 °F /  -5.7 °C 30.01in /  1016.1hPa West 5.0mph /  8km/h 13.0mph /  20.9km/h 63% 0.00in /  0mm
11:24 31.4 °F /  -0.3 °C 18.7 °F /  -7.4 °C 30.01in /  1016.1hPa WNW 7.0mph /  11.3km/h 16.0mph /  25.7km/h 59% 0.00in /  0mm
11:29 30.4 °F /  -0.9 °C 17.4 °F /  -8.1 °C 30.02in /  1016.5hPa WNW 8.0mph /  12.9km/h 16.0mph /  25.7km/h 58% 0.00in /  0mm
11:34 30.7 °F /  -0.7 °C 17.7 °F /  -7.9 °C 30.02in /  1016.5hPa WNW 4.0mph /  6.4km/h 16.0mph /  25.7km/h 58% 0.00in /  0mm
11:39 31.3 °F /  -0.4 °C 18.2 °F /  -7.7 °C 30.02in /  1016.5hPa West 9.0mph /  14.5km/h 17.0mph /  27.4km/h 58% 0.00in /  0mm
11:44 31.0 °F /  -0.6 °C 17.5 °F /  -8.1 °C 30.02in /  1016.5hPa West 8.0mph /  12.9km/h 19.0mph /  30.6km/h 57% 0.00in /  0mm
11:49 31.5 °F /  -0.3 °C 18.8 °F /  -7.3 °C 30.02in /  1016.5hPa West 8.0mph /  12.9km/h 19.0mph /  30.6km/h 59% 0.00in /  0mm
11:54 32.4 °F /  0.2 °C 18.8 °F /  -7.3 °C 30.03in /  1016.8hPa West 8.0mph /  12.9km/h 19.0mph /  30.6km/h 57% 0.00in /  0mm
11:59 32.4 °F /  0.2 °C 17.2 °F /  -8.2 °C 30.03in /  1016.8hPa SW 6.0mph /  9.7km/h 16.0mph /  25.7km/h 53% 0.00in /  0mm
12:04 31.8 °F /  -0.1 °C 17.0 °F /  -8.3 °C 30.03in /  1016.8hPa SW 6.0mph /  9.7km/h 16.0mph /  25.7km/h 54% 0.00in /  0mm
12:09 30.8 °F /  -0.7 °C 14.8 °F /  -9.6 °C 30.04in /  1017.2hPa West 7.0mph /  11.3km/h 23.0mph /  37km/h 51% 0.00in /  0mm
12:14 31.4 °F /  -0.3 °C 15.8 °F /  -9 °C 30.04in /  1017.2hPa NW 7.0mph /  11.3km/h 14.0mph /  22.5km/h 52% 0.00in /  0mm
12:19 31.0 °F /  -0.6 °C 15.4 °F /  -9.2 °C 30.04in /  1017.2hPa West 9.0mph /  14.5km/h 19.0mph /  30.6km/h 52% 0.00in /  0mm
12:24 31.4 °F /  -0.3 °C 17.1 °F /  -8.3 °C 30.04in /  1017.2hPa West 11.0mph /  17.7km/h 18.0mph /  29km/h 55% 0.00in /  0mm
12:29 31.6 °F /  -0.2 °C 16.4 °F /  -8.7 °C 30.04in /  1017.2hPa WSW 8.0mph /  12.9km/h 18.0mph /  29km/h 53% 0.00in /  0mm
12:34 31.2 °F /  -0.4 °C 15.2 °F /  -9.3 °C 30.04in /  1017.2hPa West 8.0mph /  12.9km/h 18.0mph /  29km/h 51% 0.00in /  0mm
12:39 31.6 °F /  -0.2 °C 16.4 °F /  -8.7 °C 30.04in /  1017.2hPa West 9.0mph /  14.5km/h 15.0mph /  24.1km/h 53% 0.00in /  0mm
12:44 31.4 °F /  -0.3 °C 14.4 °F /  -9.8 °C 30.04in /  1017.2hPa West 8.0mph /  12.9km/h 17.0mph /  27.4km/h 49% 0.00in /  0mm
12:49 31.2 °F /  -0.4 °C 15.6 °F /  -9.1 °C 30.04in /  1017.2hPa West 9.0mph /  14.5km/h 17.0mph /  27.4km/h 52% 0.00in /  0mm
12:54 31.0 °F /  -0.6 °C 15.4 °F /  -9.2 °C 30.04in /  1017.2hPa WNW 10.0mph /  16.1km/h 19.0mph /  30.6km/h 52% 0.00in /  0mm
12:59 31.6 °F /  -0.2 °C 16.4 °F /  -8.7 °C 30.04in /  1017.2hPa WSW 7.0mph /  11.3km/h 20.0mph /  32.2km/h 53% 0.00in /  0mm
13:04 30.9 °F /  -0.6 °C 15.3 °F /  -9.3 °C 30.04in /  1017.2hPa WNW 7.0mph /  11.3km/h 16.0mph /  25.7km/h 52% 0.00in /  0mm
13:09 31.7 °F /  -0.2 °C 16.5 °F /  -8.6 °C 30.04in /  1017.2hPa NW 10.0mph /  16.1km/h 16.0mph /  25.7km/h 53% 0.00in /  0mm
13:14 31.5 °F /  -0.3 °C 17.2 °F /  -8.2 °C 30.04in /  1017.2hPa WSW 8.0mph /  12.9km/h 15.0mph /  24.1km/h 55% 0.00in /  0mm
13:19 32.1 °F /  0.1 °C 15.5 °F /  -9.2 °C 30.04in /  1017.2hPa WSW 9.0mph /  14.5km/h 15.0mph /  24.1km/h 50% 0.00in /  0mm
13:24 32.6 °F /  0.3 °C 16.4 °F /  -8.7 °C 30.04in /  1017.2hPa West 10.0mph /  16.1km/h 18.0mph /  29km/h 51% 0.00in /  0mm
13:29 31.6 °F /  -0.2 °C 15.1 °F /  -9.4 °C 30.04in /  1017.2hPa WNW 8.0mph /  12.9km/h 18.0mph /  29km/h 50% 0.00in /  0mm
13:34 30.5 °F /  -0.8 °C 14.9 °F /  -9.5 °C 30.05in /  1017.5hPa West 9.0mph /  14.5km/h 15.0mph /  24.1km/h 52% 0.00in /  0mm
13:39 30.9 °F /  -0.6 °C 16.6 °F /  -8.6 °C 30.05in /  1017.5hPa West 8.0mph /  12.9km/h 15.0mph /  24.1km/h 55% 0.00in /  0mm
13:44 30.4 °F /  -0.9 °C 15.3 °F /  -9.3 °C 30.05in /  1017.5hPa WNW 8.0mph /  12.9km/h 15.0mph /  24.1km/h 53% 0.00in /  0mm
13:49 30.2 °F /  -1 °C 16.0 °F /  -8.9 °C 30.05in /  1017.5hPa WNW 9.0mph /  14.5km/h 17.0mph /  27.4km/h 55% 0.00in /  0mm
13:54 31.3 °F /  -0.4 °C 16.1 °F /  -8.8 °C 30.05in /  1017.5hPa WNW 9.0mph /  14.5km/h 19.0mph /  30.6km/h 53% 0.00in /  0mm
13:59 31.6 °F /  -0.2 °C 15.1 °F /  -9.4 °C 30.06in /  1017.8hPa WNW 9.0mph /  14.5km/h 19.0mph /  30.6km/h 50% 0.00in /  0mm
14:04 30.4 °F /  -0.9 °C 15.3 °F /  -9.3 °C 30.06in /  1017.8hPa West 6.0mph /  9.7km/h 18.0mph /  29km/h 53% 0.00in /  0mm
14:09 30.3 °F /  -0.9 °C 16.5 °F /  -8.6 °C 30.06in /  1017.8hPa West 7.0mph /  11.3km/h 18.0mph /  29km/h 56% 0.00in /  0mm
14:14 30.4 °F /  -0.9 °C 15.7 °F /  -9.1 °C 30.06in /  1017.8hPa WSW 9.0mph /  14.5km/h 19.0mph /  30.6km/h 54% 0.00in /  0mm
14:19 30.3 °F /  -0.9 °C 16.5 °F /  -8.6 °C 30.06in /  1017.8hPa SW 9.0mph /  14.5km/h 15.0mph /  24.1km/h 56% 0.00in /  0mm
14:24 30.5 °F /  -0.8 °C 16.7 °F /  -8.5 °C 30.06in /  1017.8hPa West 6.0mph /  9.7km/h 19.0mph /  30.6km/h 56% 0.00in /  0mm
14:29 31.3 °F /  -0.4 °C 17.8 °F /  -7.9 °C 30.06in /  1017.8hPa West 7.0mph /  11.3km/h 15.0mph /  24.1km/h 57% 0.00in /  0mm
14:34 30.5 °F /  -0.8 °C 15.4 °F /  -9.2 °C 30.06in /  1017.8hPa West 10.0mph /  16.1km/h 17.0mph /  27.4km/h 53% 0.00in /  0mm
14:39 29.9 °F /  -1.2 °C 15.3 °F /  -9.3 °C 30.06in /  1017.8hPa West 9.0mph /  14.5km/h 17.0mph /  27.4km/h 54% 0.00in /  0mm
14:44 31.0 °F /  -0.6 °C 15.8 °F /  -9 °C 30.06in /  1017.8hPa West 9.0mph /  14.5km/h 17.0mph /  27.4km/h 53% 0.00in /  0mm
14:49 30.6 °F /  -0.8 °C 15.0 °F /  -9.4 °C 30.07in /  1018.2hPa West 9.0mph /  14.5km/h 17.0mph /  27.4km/h 52% 0.00in /  0mm
14:54 30.8 °F /  -0.7 °C 16.9 °F /  -8.4 °C 30.06in /  1017.8hPa West 8.0mph /  12.9km/h 16.0mph /  25.7km/h 56% 0.00in /  0mm
14:59 31.1 °F /  -0.5 °C 17.2 °F /  -8.2 °C 30.07in /  1018.2hPa West 7.0mph /  11.3km/h 14.0mph /  22.5km/h 56% 0.00in /  0mm
15:04 30.5 °F /  -0.8 °C 15.8 °F /  -9 °C 30.07in /  1018.2hPa NW 13.0mph /  20.9km/h 17.0mph /  27.4km/h 54% 0.00in /  0mm
15:09 30.8 °F /  -0.7 °C 16.5 °F /  -8.6 °C 30.07in /  1018.2hPa West 9.0mph /  14.5km/h 17.0mph /  27.4km/h 55% 0.00in /  0mm
15:14 30.7 °F /  -0.7 °C 16.4 °F /  -8.7 °C 30.08in /  1018.5hPa WNW 8.0mph /  12.9km/h 15.0mph /  24.1km/h 55% 0.00in /  0mm
15:19 30.2 °F /  -1 °C 16.0 °F /  -8.9 °C 30.08in /  1018.5hPa NNW 6.0mph /  9.7km/h 14.0mph /  22.5km/h 55% 0.00in /  0mm
15:24 30.3 °F /  -0.9 °C 16.0 °F /  -8.9 °C 30.08in /  1018.5hPa West 3.0mph /  4.8km/h 11.0mph /  17.7km/h 55% 0.00in /  0mm
15:29 29.9 °F /  -1.2 °C 15.7 °F /  -9.1 °C 30.08in /  1018.5hPa WSW 9.0mph /  14.5km/h 16.0mph /  25.7km/h 55% 0.00in /  0mm
15:34 29.9 °F /  -1.2 °C 15.7 °F /  -9.1 °C 30.08in /  1018.5hPa West 12.0mph /  19.3km/h 17.0mph /  27.4km/h 55% 0.00in /  0mm
15:39 29.9 °F /  -1.2 °C 15.7 °F /  -9.1 °C 30.08in /  1018.5hPa WSW 3.0mph /  4.8km/h 16.0mph /  25.7km/h 55% 0.00in /  0mm
15:44 30.1 °F /  -1.1 °C 17.1 °F /  -8.3 °C 30.08in /  1018.5hPa West 7.0mph /  11.3km/h 16.0mph /  25.7km/h 58% 0.00in /  0mm
15:49 29.9 °F /  -1.2 °C 16.9 °F /  -8.4 °C 30.08in /  1018.5hPa West 7.0mph /  11.3km/h 14.0mph /  22.5km/h 58% 0.00in /  0mm
15:54 29.6 °F /  -1.3 °C 17.4 °F /  -8.1 °C 30.08in /  1018.5hPa WSW 6.0mph /  9.7km/h 16.0mph /  25.7km/h 60% 0.00in /  0mm
15:59 29.4 °F /  -1.4 °C 18.7 °F /  -7.4 °C 30.08in /  1018.5hPa West 5.0mph /  8km/h 17.0mph /  27.4km/h 64% 0.00in /  0mm
16:04 29.4 °F /  -1.4 °C 19.4 °F /  -7 °C 30.08in /  1018.5hPa West 5.0mph /  8km/h 13.0mph /  20.9km/h 66% 0.00in /  0mm
16:09 29.3 °F /  -1.5 °C 18.6 °F /  -7.4 °C 30.09in /  1018.8hPa SW 9.0mph /  14.5km/h 15.0mph /  24.1km/h 64% 0.00in /  0mm
16:19 28.9 °F /  -1.7 °C 19.0 °F /  -7.2 °C 30.09in /  1018.8hPa WSW 9.0mph /  14.5km/h 17.0mph /  27.4km/h 66% 0.00in /  0mm
16:24 28.9 °F /  -1.7 °C 19.0 °F /  -7.2 °C 30.09in /  1018.8hPa WSW 8.0mph /  12.9km/h 16.0mph /  25.7km/h 66% 0.00in /  0mm
16:29 29.0 °F /  -1.7 °C 19.4 °F /  -7 °C 30.09in /  1018.8hPa WSW 8.0mph /  12.9km/h 16.0mph /  25.7km/h 67% 0.00in /  0mm
16:34 28.7 °F /  -1.8 °C 18.8 °F /  -7.3 °C 30.09in /  1018.8hPa WSW 8.0mph /  12.9km/h 17.0mph /  27.4km/h 66% 0.00in /  0mm
16:39 28.5 °F /  -1.9 °C 18.9 °F /  -7.3 °C 30.10in /  1019.2hPa SW 7.0mph /  11.3km/h 16.0mph /  25.7km/h 67% 0.00in /  0mm
16:44 28.0 °F /  -2.2 °C 18.8 °F /  -7.3 °C 30.10in /  1019.2hPa West 8.0mph /  12.9km/h 16.0mph /  25.7km/h 68% 0.00in /  0mm
16:49 27.9 °F /  -2.3 °C 19.0 °F /  -7.2 °C 30.10in /  1019.2hPa SW 8.0mph /  12.9km/h 18.0mph /  29km/h 69% 0.00in /  0mm
16:54 27.8 °F /  -2.3 °C 18.9 °F /  -7.3 °C 30.10in /  1019.2hPa West 6.0mph /  9.7km/h 17.0mph /  27.4km/h 69% 0.00in /  0mm
16:59 27.9 °F /  -2.3 °C 19.0 °F /  -7.2 °C 30.10in /  1019.2hPa WNW 7.0mph /  11.3km/h 15.0mph /  24.1km/h 69% 0.00in /  0mm
17:04 28.0 °F /  -2.2 °C 18.5 °F /  -7.5 °C 30.11in /  1019.5hPa SW 4.0mph /  6.4km/h 14.0mph /  22.5km/h 67% 0.00in /  0mm
17:09 28.0 °F /  -2.2 °C 18.5 °F /  -7.5 °C 30.11in /  1019.5hPa NW 5.0mph /  8km/h 13.0mph /  20.9km/h 67% 0.00in /  0mm
17:14 27.8 °F /  -2.3 °C 18.3 °F /  -7.6 °C 30.11in /  1019.5hPa West 10.0mph /  16.1km/h 15.0mph /  24.1km/h 67% 0.00in /  0mm
17:19 27.8 °F /  -2.3 °C 18.3 °F /  -7.6 °C 30.11in /  1019.5hPa West 8.0mph /  12.9km/h 19.0mph /  30.6km/h 67% 0.00in /  0mm
17:24 27.6 °F /  -2.4 °C 17.7 °F /  -7.9 °C 30.12in /  1019.9hPa West 9.0mph /  14.5km/h 19.0mph /  30.6km/h 66% 0.00in /  0mm
17:29 27.5 °F /  -2.5 °C 18.0 °F /  -7.8 °C 30.12in /  1019.9hPa WSW 8.0mph /  12.9km/h 16.0mph /  25.7km/h 67% 0.00in /  0mm
17:34 27.5 °F /  -2.5 °C 18.0 °F /  -7.8 °C 30.12in /  1019.9hPa WSW 7.0mph /  11.3km/h 13.0mph /  20.9km/h 67% 0.00in /  0mm
17:39 27.5 °F /  -2.5 °C 18.0 °F /  -7.8 °C 30.13in /  1020.2hPa West 6.0mph /  9.7km/h 15.0mph /  24.1km/h 67% 0.00in /  0mm
17:44 27.2 °F /  -2.7 °C 17.7 °F /  -7.9 °C 30.13in /  1020.2hPa West 8.0mph /  12.9km/h 14.0mph /  22.5km/h 67% 0.00in /  0mm
17:49 27.0 °F /  -2.8 °C 17.5 °F /  -8.1 °C 30.13in /  1020.2hPa WNW 14.0mph /  22.5km/h 15.0mph /  24.1km/h 67% 0.00in /  0mm
17:54 26.9 °F /  -2.8 °C 17.7 °F /  -7.9 °C 30.13in /  1020.2hPa West 8.0mph /  12.9km/h 16.0mph /  25.7km/h 68% 0.00in /  0mm
17:59 26.9 °F /  -2.8 °C 18.1 °F /  -7.7 °C 30.13in /  1020.2hPa West 8.0mph /  12.9km/h 17.0mph /  27.4km/h 69% 0.00in /  0mm
18:04 26.9 °F /  -2.8 °C 18.1 °F /  -7.7 °C 30.13in /  1020.2hPa WSW 8.0mph /  12.9km/h 13.0mph /  20.9km/h 69% 0.00in /  0mm
18:09 26.8 °F /  -2.9 °C 17.6 °F /  -8 °C 30.14in /  1020.5hPa SW 5.0mph /  8km/h 15.0mph /  24.1km/h 68% 0.00in /  0mm
18:14 27.0 °F /  -2.8 °C 18.2 °F /  -7.7 °C 30.14in /  1020.5hPa West 11.0mph /  17.7km/h 19.0mph /  30.6km/h 69% 0.00in /  0mm
18:19 26.9 °F /  -2.8 °C 17.4 °F /  -8.1 °C 30.14in /  1020.5hPa West 8.0mph /  12.9km/h 15.0mph /  24.1km/h 67% 0.00in /  0mm
18:24 26.9 °F /  -2.8 °C 17.4 °F /  -8.1 °C 30.15in /  1020.9hPa West 7.0mph /  11.3km/h 15.0mph /  24.1km/h 67% 0.00in /  0mm
18:29 26.9 °F /  -2.8 °C 17.4 °F /  -8.1 °C 30.15in /  1020.9hPa West 6.0mph /  9.7km/h 12.0mph /  19.3km/h 67% 0.00in /  0mm
18:34 26.9 °F /  -2.8 °C 17.0 °F /  -8.3 °C 30.15in /  1020.9hPa West 6.0mph /  9.7km/h 12.0mph /  19.3km/h 66% 0.00in /  0mm
18:39 26.9 °F /  -2.8 °C 17.0 °F /  -8.3 °C 30.15in /  1020.9hPa WSW 6.0mph /  9.7km/h 12.0mph /  19.3km/h 66% 0.00in /  0mm
18:44 26.9 °F /  -2.8 °C 16.7 °F /  -8.5 °C 30.16in /  1021.2hPa West 7.0mph /  11.3km/h 16.0mph /  25.7km/h 65% 0.00in /  0mm
18:49 26.8 °F /  -2.9 °C 15.1 °F /  -9.4 °C 30.16in /  1021.2hPa NW 6.0mph /  9.7km/h 17.0mph /  27.4km/h 61% 0.00in /  0mm
18:54 26.8 °F /  -2.9 °C 15.5 °F /  -9.2 °C 30.16in /  1021.2hPa West 14.0mph /  22.5km/h 19.0mph /  30.6km/h 62% 0.00in /  0mm
18:59 26.8 °F /  -2.9 °C 15.9 °F /  -8.9 °C 30.17in /  1021.6hPa West 8.0mph /  12.9km/h 19.0mph /  30.6km/h 63% 0.00in /  0mm
19:04 26.7 °F /  -2.9 °C 16.1 °F /  -8.8 °C 30.17in /  1021.6hPa West 8.0mph /  12.9km/h 17.0mph /  27.4km/h 64% 0.00in /  0mm
19:09 26.6 °F /  -3 °C 16.1 °F /  -8.8 °C 30.17in /  1021.6hPa West 5.0mph /  8km/h 16.0mph /  25.7km/h 64% 0.00in /  0mm
19:14 26.6 °F /  -3 °C 16.4 °F /  -8.7 °C 30.17in /  1021.6hPa West 4.0mph /  6.4km/h 12.0mph /  19.3km/h 65% 0.00in /  0mm
19:19 26.5 °F /  -3.1 °C 15.6 °F /  -9.1 °C 30.18in /  1021.9hPa West 6.0mph /  9.7km/h 15.0mph /  24.1km/h 63% 0.00in /  0mm
19:24 26.5 °F /  -3.1 °C 15.2 °F /  -9.3 °C 30.18in /  1021.9hPa WSW 7.0mph /  11.3km/h 14.0mph /  22.5km/h 62% 0.00in /  0mm
19:29 26.4 °F /  -3.1 °C 14.8 °F /  -9.6 °C 30.18in /  1021.9hPa West 8.0mph /  12.9km/h 14.0mph /  22.5km/h 61% 0.00in /  0mm
19:34 26.4 °F /  -3.1 °C 14.8 °F /  -9.6 °C 30.18in /  1021.9hPa West 8.0mph /  12.9km/h 15.0mph /  24.1km/h 61% 0.00in /  0mm
19:39 26.3 °F /  -3.2 °C 14.7 °F /  -9.6 °C 30.18in /  1021.9hPa West 8.0mph /  12.9km/h 15.0mph /  24.1km/h 61% 0.00in /  0mm
19:44 26.1 °F /  -3.3 °C 14.5 °F /  -9.7 °C 30.18in /  1021.9hPa West 7.0mph /  11.3km/h 18.0mph /  29km/h 61% 0.00in /  0mm
19:49 26.1 °F /  -3.3 °C 14.8 °F /  -9.6 °C 30.19in /  1022.2hPa West 8.0mph /  12.9km/h 14.0mph /  22.5km/h 62% 0.00in /  0mm
19:54 26.1 °F /  -3.3 °C 14.8 °F /  -9.6 °C 30.19in /  1022.2hPa WSW 9.0mph /  14.5km/h 17.0mph /  27.4km/h 62% 0.00in /  0mm
19:59 26.0 °F /  -3.3 °C 14.8 °F /  -9.6 °C 30.19in /  1022.2hPa West 8.0mph /  12.9km/h 17.0mph /  27.4km/h 62% 0.00in /  0mm
20:04 25.9 °F /  -3.4 °C 15.0 °F /  -9.4 °C 30.19in /  1022.2hPa West 8.0mph /  12.9km/h 16.0mph /  25.7km/h 63% 0.00in /  0mm
20:09 25.8 °F /  -3.4 °C 14.6 °F /  -9.7 °C 30.20in /  1022.6hPa West 7.0mph /  11.3km/h 13.0mph /  20.9km/h 62% 0.00in /  0mm
20:14 25.7 °F /  -3.5 °C 14.8 °F /  -9.6 °C 30.20in /  1022.6hPa WNW 11.0mph /  17.7km/h 15.0mph /  24.1km/h 63% 0.00in /  0mm
20:19 25.6 °F /  -3.6 °C 14.7 °F /  -9.6 °C 30.20in /  1022.6hPa West 10.0mph /  16.1km/h 12.0mph /  19.3km/h 63% 0.00in /  0mm
20:24 25.5 °F /  -3.6 °C 14.3 °F /  -9.8 °C 30.20in /  1022.6hPa West 4.0mph /  6.4km/h 14.0mph /  22.5km/h 62% 0.00in /  0mm
20:29 25.4 °F /  -3.7 °C 14.2 °F /  -9.9 °C 30.20in /  1022.6hPa WNW 5.0mph /  8km/h 12.0mph /  19.3km/h 62% 0.00in /  0mm
20:34 25.4 °F /  -3.7 °C 14.5 °F /  -9.7 °C 30.20in /  1022.6hPa West 7.0mph /  11.3km/h 13.0mph /  20.9km/h 63% 0.00in /  0mm
20:39 25.2 °F /  -3.8 °C 14.4 °F /  -9.8 °C 30.20in /  1022.6hPa West 6.0mph /  9.7km/h 13.0mph /  20.9km/h 63% 0.00in /  0mm
20:44 25.1 °F /  -3.8 °C 14.3 °F /  -9.8 °C 30.20in /  1022.6hPa West 6.0mph /  9.7km/h 12.0mph /  19.3km/h 63% 0.00in /  0mm
20:49 25.0 °F /  -3.9 °C 14.2 °F /  -9.9 °C 30.20in /  1022.6hPa West 7.0mph /  11.3km/h 16.0mph /  25.7km/h 63% 0.00in /  0mm
20:54 25.1 °F /  -3.8 °C 14.6 °F /  -9.7 °C 30.21in /  1022.9hPa West 7.0mph /  11.3km/h 16.0mph /  25.7km/h 64% 0.00in /  0mm
20:59 25.0 °F /  -3.9 °C 14.5 °F /  -9.7 °C 30.21in /  1022.9hPa West 2.0mph /  3.2km/h 13.0mph /  20.9km/h 64% 0.00in /  0mm
21:04 25.0 °F /  -3.9 °C 14.5 °F /  -9.7 °C 30.21in /  1022.9hPa West 6.0mph /  9.7km/h 15.0mph /  24.1km/h 64% 0.00in /  0mm
21:09 24.9 °F /  -3.9 °C 14.1 °F /  -9.9 °C 30.21in /  1022.9hPa West 10.0mph /  16.1km/h 15.0mph /  24.1km/h 63% 0.00in /  0mm
21:14 24.8 °F /  -4 °C 13.6 °F /  -10.2 °C 30.21in /  1022.9hPa WNW 12.0mph /  19.3km/h 15.0mph /  24.1km/h 62% 0.00in /  0mm
21:19 24.7 °F /  -4.1 °C 13.9 °F /  -10.1 °C 30.21in /  1022.9hPa North 7.0mph /  11.3km/h 15.0mph /  24.1km/h 63% 0.00in /  0mm
21:24 24.7 °F /  -4.1 °C 13.9 °F /  -10.1 °C 30.22in /  1023.2hPa WSW 9.0mph /  14.5km/h 11.0mph /  17.7km/h 63% 0.00in /  0mm
21:29 24.6 °F /  -4.1 °C 13.8 °F /  -10.1 °C 30.22in /  1023.2hPa SW 6.0mph /  9.7km/h 13.0mph /  20.9km/h 63% 0.00in /  0mm
21:34 24.5 °F /  -4.2 °C 13.7 °F /  -10.2 °C 30.22in /  1023.2hPa West 7.0mph /  11.3km/h 14.0mph /  22.5km/h 63% 0.00in /  0mm
21:39 24.4 °F /  -4.2 °C 13.6 °F /  -10.2 °C 30.22in /  1023.2hPa WNW 7.0mph /  11.3km/h 16.0mph /  25.7km/h 63% 0.00in /  0mm
21:44 24.3 °F /  -4.3 °C 13.1 °F /  -10.5 °C 30.22in /  1023.2hPa WNW 8.0mph /  12.9km/h 16.0mph /  25.7km/h 62% 0.00in /  0mm
21:49 24.3 °F /  -4.3 °C 13.5 °F /  -10.3 °C 30.22in /  1023.2hPa WNW 5.0mph /  8km/h 13.0mph /  20.9km/h 63% 0.00in /  0mm
21:54 24.2 °F /  -4.3 °C 13.4 °F /  -10.3 °C 30.22in /  1023.2hPa NW 6.0mph /  9.7km/h 15.0mph /  24.1km/h 63% 0.00in /  0mm
21:59 24.0 °F /  -4.4 °C 13.2 °F /  -10.4 °C 30.22in /  1023.2hPa SW 3.0mph /  4.8km/h 15.0mph /  24.1km/h 63% 0.00in /  0mm
22:04 23.9 °F /  -4.5 °C 13.5 °F /  -10.3 °C 30.22in /  1023.2hPa WNW 3.0mph /  4.8km/h 13.0mph /  20.9km/h 64% 0.00in /  0mm
22:09 23.7 °F /  -4.6 °C 13.3 °F /  -10.4 °C 30.22in /  1023.2hPa WNW 7.0mph /  11.3km/h 13.0mph /  20.9km/h 64% 0.00in /  0mm
22:14 23.6 °F /  -4.7 °C 13.5 °F /  -10.3 °C 30.22in /  1023.2hPa WNW 7.0mph /  11.3km/h 13.0mph /  20.9km/h 65% 0.00in /  0mm
22:19 23.4 °F /  -4.8 °C 13.4 °F /  -10.3 °C 30.22in /  1023.2hPa WNW 6.0mph /  9.7km/h 12.0mph /  19.3km/h 65% 0.00in /  0mm
22:24 23.4 °F /  -4.8 °C 13.7 °F /  -10.2 °C 30.22in /  1023.2hPa West 5.0mph /  8km/h 9.0mph /  14.5km/h 66% 0.00in /  0mm
22:29 23.4 °F /  -4.8 °C 13.7 °F /  -10.2 °C 30.22in /  1023.2hPa WNW 3.0mph /  4.8km/h 9.0mph /  14.5km/h 66% 0.00in /  0mm
22:34 23.4 °F /  -4.8 °C 13.7 °F /  -10.2 °C 30.22in /  1023.2hPa NW 4.0mph /  6.4km/h 9.0mph /  14.5km/h 66% 0.00in /  0mm
22:39 23.4 °F /  -4.8 °C 13.7 °F /  -10.2 °C 30.22in /  1023.2hPa WNW 5.0mph /  8km/h 11.0mph /  17.7km/h 66% 0.00in /  0mm
22:44 23.5 °F /  -4.7 °C 13.8 °F /  -10.1 °C 30.22in /  1023.2hPa WNW 5.0mph /  8km/h 11.0mph /  17.7km/h 66% 0.00in /  0mm
22:49 23.5 °F /  -4.7 °C 13.5 °F /  -10.3 °C 30.22in /  1023.2hPa WNW 11.0mph /  17.7km/h 11.0mph /  17.7km/h 65% 0.00in /  0mm
22:54 23.5 °F /  -4.7 °C 13.5 °F /  -10.3 °C 30.22in /  1023.2hPa NW 7.0mph /  11.3km/h 11.0mph /  17.7km/h 65% 0.00in /  0mm
22:59 23.4 °F /  -4.8 °C 13.4 °F /  -10.3 °C 30.22in /  1023.2hPa West 7.0mph /  11.3km/h 10.0mph /  16.1km/h 65% 0.00in /  0mm
23:04 23.2 °F /  -4.9 °C 13.2 °F /  -10.4 °C 30.22in /  1023.2hPa NW 2.0mph /  3.2km/h 11.0mph /  17.7km/h 65% 0.00in /  0mm
23:09 23.1 °F /  -4.9 °C 13.1 °F /  -10.5 °C 30.22in /  1023.2hPa WNW 5.0mph /  8km/h 11.0mph /  17.7km/h 65% 0.00in /  0mm
23:14 23.1 °F /  -4.9 °C 12.7 °F /  -10.7 °C 30.22in /  1023.2hPa NW 4.0mph /  6.4km/h 9.0mph /  14.5km/h 64% 0.00in /  0mm
23:19 23.0 °F /  -5 °C 12.6 °F /  -10.8 °C 30.22in /  1023.2hPa NW 4.0mph /  6.4km/h 8.0mph /  12.9km/h 64% 0.00in /  0mm
23:24 22.9 °F /  -5.1 °C 12.5 °F /  -10.8 °C 30.22in /  1023.2hPa NW 4.0mph /  6.4km/h 12.0mph /  19.3km/h 64% 0.00in /  0mm
23:29 22.7 °F /  -5.2 °C 12.7 °F /  -10.7 °C 30.22in /  1023.2hPa NW 5.0mph /  8km/h 12.0mph /  19.3km/h 65% 0.00in /  0mm
23:34 22.7 °F /  -5.2 °C 12.7 °F /  -10.7 °C 30.22in /  1023.2hPa NNW 4.0mph /  6.4km/h 8.0mph /  12.9km/h 65% 0.00in /  0mm
23:39 22.7 °F /  -5.2 °C 12.7 °F /  -10.7 °C 30.23in /  1023.6hPa WNW 2.0mph /  3.2km/h 8.0mph /  12.9km/h 65% 0.00in /  0mm
23:44 22.7 °F /  -5.2 °C 13.0 °F /  -10.6 °C 30.23in /  1023.6hPa NW 4.0mph /  6.4km/h 6.0mph /  9.7km/h 66% 0.00in /  0mm
23:49 22.8 °F /  -5.1 °C 13.1 °F /  -10.5 °C 30.22in /  1023.2hPa WNW 3.0mph /  4.8km/h 8.0mph /  12.9km/h 66% 0.00in /  0mm
23:54 22.9 °F /  -5.1 °C 13.2 °F /  -10.4 °C 30.22in /  1023.2hPa WNW 4.0mph /  6.4km/h 9.0mph /  14.5km/h 66% 0.00in /  0mm
23:59 23.0 °F /  -5 °C 13.3 °F /  -10.4 °C 30.22in /  1023.2hPa NW 1.0mph /  1.6km/h 6.0mph /  9.7km/h 66% 0.00in /  0mm
Buffalo, New York, USA
Compliments of Weather Underground - 2.5 mb